Time;durP1;ratioP1;P1;durP2;ratioP2;P2;SDS_P1;SDS_P2;PMS_P1;PMS_P2;Temp;Humidity;BMP_temperature;BMP_pressure;BME280_temperature;BME280_humidity;BME280_pressure;Samples;Min_cycle;Max_cycle;Signal;HPM_P1;HPM_P2
2023/07/15 00:01:06;;;;;;;;;;;19.20;99.90;;;;;;5036984;28;20330;-85
2023/07/15 00:03:33;;;;;;;;;;;19.20;99.90;;;;;;5033207;28;20726;-83
2023/07/15 00:05:58;;;;;;;;;;;19.10;99.90;;;;;;5033544;28;19933;-85
2023/07/15 00:08:24;;;;;;;;;;;19.20;99.90;;;;;;5058266;28;19986;-85
2023/07/15 00:10:50;;;;;;;;;;;19.20;99.90;;;;;;5030867;28;20372;-86
2023/07/15 00:13:17;;;;;;;;;;;19.20;99.90;;;;;;5031692;28;20012;-86
2023/07/15 00:15:43;;;;;;;;;;;19.30;99.90;;;;;;5027336;28;19926;-85
2023/07/15 00:18:09;;;;;;;;;;;19.30;99.90;;;;;;5030561;28;19968;-85
2023/07/15 00:20:35;;;;;;;;;;;19.30;99.90;;;;;;5029406;28;19960;-84
2023/07/15 00:23:01;;;;;;;;;;;19.30;99.90;;;;;;5030351;28;19929;-87
2023/07/15 00:25:27;;;;;;;;;;;19.30;99.90;;;;;;5028439;28;19932;-84
2023/07/15 00:27:53;;;;;;;;;;;19.30;99.90;;;;;;5028384;28;19925;-89
2023/07/15 00:30:21;;;;;;;;;;;19.30;99.90;;;;;;5036910;28;19925;-84
2023/07/15 00:32:48;;;;;;;;;;;19.30;99.90;;;;;;5038561;28;19933;-85
2023/07/15 00:35:28;;;;;;;;;;;19.30;99.90;;;;;;5032921;28;20705;-86
2023/07/15 00:37:54;;;;;;;;;;;19.30;99.90;;;;;;5028050;28;19929;-87
2023/07/15 00:40:20;;;;;;;;;;;19.40;99.90;;;;;;5030507;28;20399;-85
2023/07/15 00:43:04;;;;;;;;;;;19.40;99.90;;;;;;5026752;28;20007;-85
2023/07/15 00:45:30;;;;;;;;;;;19.40;99.90;;;;;;5027225;28;19965;-84
2023/07/15 00:48:23;;;;;;;;;;;19.50;99.90;;;;;;5030466;28;20391;-88
2023/07/15 00:50:48;;;;;;;;;;;19.50;99.90;;;;;;5026106;28;20019;-84
2023/07/15 00:53:14;;;;;;;;;;;19.50;99.90;;;;;;5058705;28;20019;-89
2023/07/15 00:55:40;;;;;;;;;;;19.50;99.90;;;;;;5031188;28;19940;-85
2023/07/15 00:58:06;;;;;;;;;;;19.50;99.90;;;;;;5027052;28;20709;-87
2023/07/15 01:00:31;;;;;;;;;;;19.60;99.90;;;;;;5025204;28;19926;-85
2023/07/15 01:02:57;;;;;;;;;;;19.60;99.90;;;;;;5045292;28;20508;-86
2023/07/15 01:05:22;;;;;;;;;;;19.70;99.90;;;;;;5025977;28;19979;-83
2023/07/15 01:07:48;;;;;;;;;;;19.70;99.90;;;;;;5035489;28;19924;-86
2023/07/15 01:10:15;;;;;;;;;;;19.70;99.90;;;;;;5049498;28;19932;-86
2023/07/15 01:12:40;;;;;;;;;;;19.80;99.90;;;;;;5057248;28;20008;-88
2023/07/15 01:15:06;;;;;;;;;;;19.80;99.90;;;;;;5057684;28;20365;-85
2023/07/15 01:17:32;;;;;;;;;;;19.90;99.90;;;;;;5034932;28;19926;-87
2023/07/15 01:19:58;;;;;;;;;;;19.90;99.90;;;;;;5023450;28;19933;-85
2023/07/15 01:22:23;;;;;;;;;;;19.90;99.90;;;;;;5043945;28;19978;-85
2023/07/15 01:24:49;;;;;;;;;;;20.00;99.90;;;;;;5039206;28;19932;-88
2023/07/15 01:27:15;;;;;;;;;;;20.00;99.90;;;;;;5052555;28;19932;-88
2023/07/15 01:29:40;;;;;;;;;;;20.00;99.90;;;;;;5050426;28;19978;-88
2023/07/15 01:32:06;;;;;;;;;;;20.00;99.90;;;;;;5036733;28;19924;-84
2023/07/15 01:34:31;;;;;;;;;;;20.00;99.90;;;;;;5050199;28;19975;-85
2023/07/15 01:36:57;;;;;;;;;;;20.00;99.90;;;;;;5029998;28;19964;-85
2023/07/15 01:39:23;;;;;;;;;;;20.00;99.90;;;;;;5040840;28;19952;-86
2023/07/15 01:41:49;;;;;;;;;;;20.00;99.90;;;;;;5054179;28;20382;-85
2023/07/15 01:44:15;;;;;;;;;;;20.00;99.90;;;;;;5041678;28;19928;-85
2023/07/15 01:46:40;;;;;;;;;;;20.00;99.90;;;;;;5040785;28;19931;-85
2023/07/15 01:49:07;;;;;;;;;;;20.00;99.90;;;;;;5049622;28;19944;-86
2023/07/15 01:51:33;;;;;;;;;;;20.00;99.90;;;;;;5039326;28;19936;-86
2023/07/15 01:53:59;;;;;;;;;;;19.90;99.90;;;;;;5052785;28;19924;-85
2023/07/15 01:56:25;;;;;;;;;;;19.90;99.90;;;;;;5056721;28;19947;-85
2023/07/15 01:58:50;;;;;;;;;;;19.90;99.90;;;;;;5047009;28;20039;-85
2023/07/15 02:01:16;;;;;;;;;;;19.80;99.90;;;;;;5042521;28;19994;-84
2023/07/15 02:03:41;;;;;;;;;;;19.80;99.90;;;;;;5055990;28;19969;-85
2023/07/15 02:06:07;;;;;;;;;;;19.70;99.90;;;;;;5047748;28;19932;-85
2023/07/15 02:08:32;;;;;;;;;;;19.70;99.90;;;;;;5036813;28;19925;-85
2023/07/15 02:10:58;;;;;;;;;;;19.60;99.90;;;;;;5038932;28;19940;-86
2023/07/15 02:13:24;;;;;;;;;;;19.50;99.90;;;;;;5057761;28;19929;-84
2023/07/15 02:15:50;;;;;;;;;;;19.50;99.90;;;;;;5054820;28;20425;-88
2023/07/15 02:18:15;;;;;;;;;;;19.40;99.90;;;;;;5038477;28;19925;-85
2023/07/15 02:20:41;;;;;;;;;;;19.40;99.90;;;;;;5019275;28;19929;-85
2023/07/15 02:23:08;;;;;;;;;;;19.40;99.90;;;;;;5049181;28;19925;-84
2023/07/15 02:25:34;;;;;;;;;;;19.40;99.90;;;;;;5033393;28;19928;-84
2023/07/15 02:28:00;;;;;;;;;;;19.40;99.90;;;;;;5036405;28;19925;-85
2023/07/15 02:30:26;;;;;;;;;;;19.40;99.90;;;;;;5033648;28;19925;-85
2023/07/15 02:32:54;;;;;;;;;;;19.50;99.90;;;;;;5051006;28;19935;-84
2023/07/15 02:35:20;;;;;;;;;;;19.50;99.90;;;;;;5036995;28;20019;-86
2023/07/15 02:37:48;;;;;;;;;;;19.40;99.90;;;;;;5039032;28;21213;-88
2023/07/15 02:40:14;;;;;;;;;;;19.40;99.90;;;;;;5045298;28;20078;-85
2023/07/15 02:42:40;;;;;;;;;;;19.30;99.90;;;;;;5036254;28;19924;-84
2023/07/15 02:45:10;;;;;;;;;;;19.30;99.90;;;;;;5053631;28;19924;-86
2023/07/15 02:47:37;;;;;;;;;;;19.30;99.90;;;;;;5033655;28;19929;-90
2023/07/15 02:50:07;;;;;;;;;;;19.20;99.90;;;;;;5034966;28;19932;-84
2023/07/15 02:52:33;;;;;;;;;;;19.20;99.90;;;;;;5052075;28;20370;-84
2023/07/15 02:55:02;;;;;;;;;;;19.10;99.90;;;;;;5032454;28;19932;-87
2023/07/15 02:57:28;;;;;;;;;;;19.10;99.90;;;;;;5032028;28;19929;-84
2023/07/15 02:59:54;;;;;;;;;;;19.00;99.90;;;;;;5038595;28;20283;-85
2023/07/15 03:02:20;;;;;;;;;;;18.90;99.90;;;;;;5032891;28;19925;-83
2023/07/15 03:04:46;;;;;;;;;;;18.90;99.90;;;;;;5051140;28;21577;-84
2023/07/15 03:07:15;;;;;;;;;;;18.90;99.90;;;;;;5050071;28;19939;-85
2023/07/15 03:09:41;;;;;;;;;;;18.90;99.90;;;;;;5035693;28;19961;-86
2023/07/15 03:12:09;;;;;;;;;;;18.90;99.90;;;;;;5021712;28;19928;-87
2023/07/15 03:14:35;;;;;;;;;;;19.00;99.90;;;;;;5035699;28;19944;-89
2023/07/15 03:17:01;;;;;;;;;;;19.00;99.90;;;;;;5044622;28;19925;-85
2023/07/15 03:19:27;;;;;;;;;;;19.00;99.90;;;;;;5062372;28;20252;-88
2023/07/15 03:21:53;;;;;;;;;;;19.10;99.90;;;;;;5036845;28;19935;-85
2023/07/15 03:24:18;;;;;;;;;;;19.10;99.90;;;;;;5047804;28;19993;-86
2023/07/15 03:26:45;;;;;;;;;;;19.10;99.90;;;;;;5024242;28;19938;-86
2023/07/15 03:29:10;;;;;;;;;;;19.20;99.90;;;;;;5051546;28;20019;-87
2023/07/15 03:31:36;;;;;;;;;;;19.20;99.90;;;;;;5057219;28;20023;-86
2023/07/15 03:34:02;;;;;;;;;;;19.20;99.90;;;;;;5050313;28;19928;-87
2023/07/15 03:36:27;;;;;;;;;;;19.20;99.90;;;;;;5044907;28;19928;-85
2023/07/15 03:38:53;;;;;;;;;;;19.30;99.90;;;;;;5053121;28;19929;-86
2023/07/15 03:41:19;;;;;;;;;;;19.30;99.90;;;;;;5053408;28;19924;-87
2023/07/15 03:43:44;;;;;;;;;;;19.30;99.90;;;;;;5035624;28;20439;-86
2023/07/15 03:46:10;;;;;;;;;;;19.30;99.90;;;;;;5056899;28;19925;-86
2023/07/15 03:48:36;;;;;;;;;;;19.30;99.90;;;;;;5053862;28;19974;-86
2023/07/15 03:51:01;;;;;;;;;;;19.30;99.90;;;;;;5055301;28;19939;-87
2023/07/15 03:53:28;;;;;;;;;;;19.30;99.90;;;;;;5054404;28;20275;-87
2023/07/15 03:55:53;;;;;;;;;;;19.30;99.90;;;;;;5039802;28;19932;-86
2023/07/15 03:58:19;;;;;;;;;;;19.30;99.90;;;;;;5041704;28;19933;-87
2023/07/15 04:00:44;;;;;;;;;;;19.30;99.90;;;;;;5037278;28;19932;-88
2023/07/15 04:03:10;;;;;;;;;;;19.30;99.90;;;;;;5056516;28;19990;-86
2023/07/15 04:05:36;;;;;;;;;;;19.30;99.90;;;;;;5052235;28;20910;-85
2023/07/15 04:08:01;;;;;;;;;;;19.30;99.90;;;;;;5055062;28;19925;-87
2023/07/15 04:10:27;;;;;;;;;;;19.30;99.90;;;;;;5019926;28;20025;-85
2023/07/15 04:12:52;;;;;;;;;;;19.30;99.90;;;;;;5055628;28;19924;-85
2023/07/15 04:15:18;;;;;;;;;;;19.30;99.90;;;;;;5040953;28;19935;-84
2023/07/15 04:17:43;;;;;;;;;;;19.30;99.90;;;;;;5039860;28;20394;-85
2023/07/15 04:20:15;;;;;;;;;;;19.30;99.90;;;;;;5035621;28;19924;-85
2023/07/15 04:22:41;;;;;;;;;;;19.30;99.90;;;;;;5028556;28;19924;-85
2023/07/15 04:25:07;;;;;;;;;;;19.30;99.90;;;;;;5033349;28;19935;-86
2023/07/15 04:27:33;;;;;;;;;;;19.30;99.90;;;;;;5036074;28;19924;-87
2023/07/15 04:29:58;;;;;;;;;;;19.30;99.90;;;;;;5069156;28;20282;-85
2023/07/15 04:32:24;;;;;;;;;;;19.30;99.90;;;;;;5052794;28;19982;-87
2023/07/15 04:34:50;;;;;;;;;;;19.30;99.90;;;;;;5053122;28;20062;-85
2023/07/15 04:37:17;;;;;;;;;;;19.30;99.90;;;;;;5033971;28;19932;-84
2023/07/15 04:39:42;;;;;;;;;;;19.40;99.90;;;;;;5034127;28;19928;-85
2023/07/15 04:42:08;;;;;;;;;;;19.40;99.90;;;;;;5052970;28;19933;-85
2023/07/15 04:44:33;;;;;;;;;;;19.40;99.90;;;;;;5035831;28;19972;-84
2023/07/15 04:46:59;;;;;;;;;;;19.40;99.90;;;;;;5056710;28;20011;-86
2023/07/15 04:49:25;;;;;;;;;;;19.40;99.90;;;;;;5054515;28;19928;-85
2023/07/15 04:51:50;;;;;;;;;;;19.50;99.90;;;;;;5053148;28;19968;-86
2023/07/15 04:54:16;;;;;;;;;;;19.50;99.90;;;;;;5030158;28;19924;-85
2023/07/15 04:56:42;;;;;;;;;;;19.50;99.90;;;;;;5032515;28;19928;-87
2023/07/15 04:59:07;;;;;;;;;;;19.60;99.90;;;;;;5054912;28;20613;-85
2023/07/15 05:01:33;;;;;;;;;;;19.60;99.90;;;;;;5019143;28;20267;-85
2023/07/15 05:04:01;;;;;;;;;;;19.70;99.90;;;;;;5050853;28;20011;-85
2023/07/15 05:06:27;;;;;;;;;;;19.80;99.90;;;;;;5045404;28;19975;-85
2023/07/15 05:08:53;;;;;;;;;;;20.00;99.90;;;;;;5036807;28;20402;-85
2023/07/15 05:11:19;;;;;;;;;;;20.10;99.90;;;;;;5034681;28;19979;-85
2023/07/15 05:13:46;;;;;;;;;;;20.60;99.90;;;;;;5021919;28;19931;-89
2023/07/15 05:16:15;;;;;;;;;;;21.00;99.90;;;;;;5052319;28;20003;-85
2023/07/15 05:18:40;;;;;;;;;;;21.40;99.90;;;;;;5051077;28;19944;-86
2023/07/15 05:21:06;;;;;;;;;;;21.90;99.90;;;;;;5035468;28;19928;-87
2023/07/15 05:23:32;;;;;;;;;;;22.50;99.90;;;;;;5045512;28;20671;-85
2023/07/15 05:26:01;;;;;;;;;;;23.10;99.90;;;;;;5049705;28;19929;-88
2023/07/15 05:28:30;;;;;;;;;;;23.60;99.90;;;;;;5036807;28;20368;-85
2023/07/15 05:30:56;;;;;;;;;;;24.00;99.90;;;;;;5065281;28;20228;-86
2023/07/15 05:33:22;;;;;;;;;;;24.40;99.90;;;;;;5054914;28;19925;-87
2023/07/15 05:35:48;;;;;;;;;;;24.70;99.90;;;;;;5064779;28;19928;-87
2023/07/15 05:38:13;;;;;;;;;;;25.00;99.90;;;;;;5028066;28;19925;-87
2023/07/15 05:40:42;;;;;;;;;;;25.20;99.90;;;;;;5050261;28;20291;-88
2023/07/15 05:43:08;;;;;;;;;;;25.40;99.90;;;;;;5051904;28;19925;-85
2023/07/15 05:45:33;;;;;;;;;;;25.70;99.90;;;;;;5050648;28;20291;-88
2023/07/15 05:47:59;;;;;;;;;;;25.80;99.90;;;;;;5051782;28;19983;-87
2023/07/15 05:50:25;;;;;;;;;;;26.10;99.90;;;;;;5052798;28;20378;-86
2023/07/15 05:52:52;;;;;;;;;;;26.30;99.90;;;;;;5053072;28;20444;-85
2023/07/15 05:55:19;;;;;;;;;;;26.40;99.90;;;;;;5051005;28;19933;-87
2023/07/15 05:57:44;;;;;;;;;;;26.20;99.90;;;;;;5048067;28;19924;-87
2023/07/15 06:00:10;;;;;;;;;;;25.90;99.90;;;;;;5049881;28;19931;-86
2023/07/15 06:02:36;;;;;;;;;;;25.90;99.90;;;;;;5051186;28;20321;-87
2023/07/15 06:05:02;;;;;;;;;;;26.00;99.90;;;;;;5034729;28;19928;-88
2023/07/15 06:07:27;;;;;;;;;;;26.20;99.90;;;;;;5056327;28;19932;-87
2023/07/15 06:09:53;;;;;;;;;;;26.50;99.90;;;;;;5053426;28;19933;-87
2023/07/15 06:12:19;;;;;;;;;;;26.80;99.90;;;;;;5046520;28;19940;-86
2023/07/15 06:14:44;;;;;;;;;;;27.10;99.90;;;;;;5059132;28;20394;-88
2023/07/15 06:17:10;;;;;;;;;;;27.00;99.90;;;;;;5021361;28;19929;-85
2023/07/15 06:19:36;;;;;;;;;;;26.90;99.90;;;;;;5053926;28;20375;-87
2023/07/15 06:22:01;;;;;;;;;;;26.90;99.90;;;;;;5050670;28;19932;-89
2023/07/15 06:24:27;;;;;;;;;;;26.90;99.90;;;;;;5048982;28;19979;-85
2023/07/15 06:26:52;;;;;;;;;;;27.00;99.90;;;;;;5022389;28;19978;-84
2023/07/15 06:29:18;;;;;;;;;;;27.10;98.90;;;;;;5048352;28;19932;-85
2023/07/15 06:31:44;;;;;;;;;;;27.20;99.70;;;;;;5046178;28;19932;-87
2023/07/15 06:34:10;;;;;;;;;;;27.10;99.20;;;;;;5057384;28;19928;-87
2023/07/15 06:36:36;;;;;;;;;;;26.80;98.90;;;;;;5033185;28;19929;-85
2023/07/15 06:39:02;;;;;;;;;;;26.80;99.90;;;;;;5050965;28;20451;-87
2023/07/15 06:41:28;;;;;;;;;;;26.90;99.90;;;;;;5053285;28;20199;-85
2023/07/15 06:43:53;;;;;;;;;;;27.10;98.40;;;;;;5045765;28;19968;-87
2023/07/15 06:46:19;;;;;;;;;;;27.20;99.90;;;;;;5049784;28;19944;-87
2023/07/15 06:48:45;;;;;;;;;;;27.40;99.90;;;;;;5048743;28;19982;-85
2023/07/15 06:51:14;;;;;;;;;;;27.60;99.90;;;;;;5038793;28;19933;-86
2023/07/15 06:53:40;;;;;;;;;;;27.80;99.90;;;;;;5044230;28;19971;-88
2023/07/15 06:56:06;;;;;;;;;;;28.10;99.90;;;;;;5046177;28;20393;-87
2023/07/15 06:58:31;;;;;;;;;;;28.20;98.80;;;;;;5056250;28;20382;-88
2023/07/15 07:00:57;;;;;;;;;;;28.40;99.10;;;;;;5043574;28;20007;-87
2023/07/15 07:03:22;;;;;;;;;;;28.60;98.40;;;;;;5037189;28;19939;-89
2023/07/15 07:05:48;;;;;;;;;;;28.60;98.50;;;;;;5050916;28;19929;-87
2023/07/15 07:08:13;;;;;;;;;;;28.20;97.20;;;;;;5032256;28;19929;-87
2023/07/15 07:10:39;;;;;;;;;;;27.90;98.20;;;;;;5033054;28;19925;-87
2023/07/15 07:13:05;;;;;;;;;;;27.60;99.40;;;;;;5033752;28;19925;-86
2023/07/15 07:15:30;;;;;;;;;;;27.30;99.30;;;;;;5031880;28;19925;-87
2023/07/15 07:17:56;;;;;;;;;;;27.20;99.90;;;;;;5032516;28;20012;-87
2023/07/15 07:20:21;;;;;;;;;;;27.40;99.90;;;;;;5033007;28;20371;-88
2023/07/15 07:22:47;;;;;;;;;;;27.70;99.90;;;;;;5040298;28;19925;-89
2023/07/15 07:25:13;;;;;;;;;;;27.90;99.90;;;;;;5034475;28;19936;-88
2023/07/15 07:27:38;;;;;;;;;;;28.10;99.20;;;;;;5033008;28;19932;-88
2023/07/15 07:30:04;;;;;;;;;;;28.30;99.20;;;;;;5032437;28;20022;-89
2023/07/15 07:32:30;;;;;;;;;;;28.30;98.50;;;;;;5030551;28;20371;-87
2023/07/15 07:34:58;;;;;;;;;;;28.40;98.50;;;;;;5012909;28;19973;-87
2023/07/15 07:37:23;;;;;;;;;;;28.40;98.40;;;;;;5027879;28;20331;-85
2023/07/15 07:39:49;;;;;;;;;;;28.60;99.40;;;;;;5030238;28;19943;-86
2023/07/15 07:42:14;;;;;;;;;;;28.70;98.80;;;;;;5032512;28;19925;-88
2023/07/15 07:44:40;;;;;;;;;;;29.00;98.40;;;;;;5033075;28;20278;-84
2023/07/15 07:47:05;;;;;;;;;;;29.30;98.10;;;;;;5030142;28;19933;-85
2023/07/15 07:49:31;;;;;;;;;;;29.40;97.90;;;;;;5032298;28;19929;-86
2023/07/15 07:51:57;;;;;;;;;;;29.50;96.80;;;;;;5048712;28;20367;-86
2023/07/15 07:54:22;;;;;;;;;;;29.60;96.60;;;;;;5032140;28;19940;-85
2023/07/15 07:56:48;;;;;;;;;;;29.70;97.50;;;;;;5031185;28;19989;-87
2023/07/15 07:59:13;;;;;;;;;;;29.70;97.10;;;;;;5036706;28;19952;-85
2023/07/15 08:01:39;;;;;;;;;;;29.90;97.20;;;;;;5034121;28;19932;-87
2023/07/15 08:04:05;;;;;;;;;;;29.80;95.80;;;;;;5045275;28;19928;-86
2023/07/15 08:06:30;;;;;;;;;;;29.70;97.60;;;;;;4976747;28;1801392;-84
2023/07/15 08:08:56;;;;;;;;;;;29.70;96.70;;;;;;5058783;28;19925;-85
2023/07/15 08:11:22;;;;;;;;;;;29.50;96.30;;;;;;5052464;28;19932;-87
2023/07/15 08:13:47;;;;;;;;;;;29.20;97.20;;;;;;5052956;28;20349;-83
2023/07/15 08:16:28;;;;;;;;;;;29.30;97.80;;;;;;5046230;28;20515;-86
2023/07/15 08:18:54;;;;;;;;;;;29.40;96.90;;;;;;5055234;28;20310;-87
2023/07/15 08:21:19;;;;;;;;;;;29.60;98.70;;;;;;5047748;28;19925;-85
2023/07/15 08:23:45;;;;;;;;;;;29.60;97.90;;;;;;5051871;28;20144;-85
2023/07/15 08:26:10;;;;;;;;;;;29.60;97.20;;;;;;5058921;28;19951;-86
2023/07/15 08:28:36;;;;;;;;;;;29.40;97.80;;;;;;5048288;28;19928;-85
2023/07/15 08:31:01;;;;;;;;;;;29.50;98.50;;;;;;5052579;28;19929;-84
2023/07/15 08:33:27;;;;;;;;;;;29.70;98.30;;;;;;5043742;28;19931;-85
2023/07/15 08:35:52;;;;;;;;;;;29.80;98.50;;;;;;5037518;28;19932;-86
2023/07/15 08:38:18;;;;;;;;;;;30.00;97.60;;;;;;5049264;28;20363;-87
2023/07/15 08:40:43;;;;;;;;;;;30.10;97.80;;;;;;5038202;28;20001;-87
2023/07/15 08:43:09;;;;;;;;;;;29.90;98.40;;;;;;5043196;28;19925;-86
2023/07/15 08:45:35;;;;;;;;;;;29.70;96.80;;;;;;5055748;28;19936;-87
2023/07/15 08:48:01;;;;;;;;;;;29.50;97.40;;;;;;5060482;28;19951;-90
2023/07/15 08:50:31;;;;;;;;;;;29.40;97.90;;;;;;5043704;28;19924;-88
2023/07/15 08:52:57;;;;;;;;;;;29.30;98.50;;;;;;5034695;28;19983;-87
2023/07/15 08:55:23;;;;;;;;;;;29.30;98.50;;;;;;5046462;28;19928;-87
2023/07/15 08:57:49;;;;;;;;;;;29.30;98.90;;;;;;5063529;28;19932;-88
2023/07/15 09:00:15;;;;;;;;;;;29.30;98.60;;;;;;5058961;28;20027;-88
2023/07/15 09:02:41;;;;;;;;;;;29.20;98.30;;;;;;5055727;28;19947;-86
2023/07/15 09:05:07;;;;;;;;;;;29.20;97.60;;;;;;5033403;28;20639;-91
2023/07/15 09:07:42;;;;;;;;;;;29.00;98.60;;;;;;5058601;28;20460;-85
2023/07/15 09:10:11;;;;;;;;;;;28.80;98.30;;;;;;5060485;28;20462;-88
2023/07/15 09:12:36;;;;;;;;;;;28.70;99.10;;;;;;5042113;28;20268;-87
2023/07/15 09:15:05;;;;;;;;;;;28.80;99.60;;;;;;5041854;28;19985;-86
2023/07/15 09:17:31;;;;;;;;;;;28.90;99.20;;;;;;5056531;28;20355;-90
2023/07/15 09:19:56;;;;;;;;;;;28.90;98.40;;;;;;5058396;28;19928;-86
2023/07/15 09:22:24;;;;;;;;;;;29.00;98.50;;;;;;5045094;28;19959;-85
2023/07/15 09:24:49;;;;;;;;;;;29.00;99.10;;;;;;5032435;28;20011;-88
2023/07/15 09:27:15;;;;;;;;;;;28.90;99.60;;;;;;5017277;28;20012;-89
2023/07/15 09:29:40;;;;;;;;;;;29.20;99.00;;;;;;5040214;28;19928;-86
2023/07/15 09:32:07;;;;;;;;;;;29.40;98.20;;;;;;5051444;28;20371;-86
2023/07/15 09:34:38;;;;;;;;;;;29.40;99.30;;;;;;5057753;28;20753;-85
2023/07/15 09:37:03;;;;;;;;;;;29.20;98.50;;;;;;5033295;28;19971;-88
2023/07/15 09:39:29;;;;;;;;;;;28.80;98.50;;;;;;5051985;28;19975;-89
2023/07/15 09:42:03;;;;;;;;;;;28.30;98.60;;;;;;5033324;28;19929;-89
2023/07/15 09:44:34;;;;;;;;;;;28.10;98.70;;;;;;5050328;28;19935;-87
2023/07/15 09:47:01;;;;;;;;;;;28.00;99.10;;;;;;5032670;28;19925;-87
2023/07/15 09:49:26;;;;;;;;;;;28.10;99.90;;;;;;5037245;28;19931;-85
2023/07/15 09:51:52;;;;;;;;;;;28.00;99.30;;;;;;5050867;28;19929;-84
2023/07/15 09:54:19;;;;;;;;;;;27.90;99.90;;;;;;5048610;28;19997;-84
2023/07/15 09:56:46;;;;;;;;;;;28.00;99.90;;;;;;5039524;28;19991;-87
2023/07/15 09:59:20;;;;;;;;;;;27.90;99.80;;;;;;5048545;28;19951;-83
2023/07/15 10:01:58;;;;;;;;;;;28.10;99.60;;;;;;5033036;28;19982;-86
2023/07/15 10:04:33;;;;;;;;;;;28.40;99.10;;;;;;5049261;28;19924;-86
2023/07/15 10:07:03;;;;;;;;;;;28.50;98.70;;;;;;5050018;28;19975;-86
2023/07/15 10:09:31;;;;;;;;;;;28.50;98.70;;;;;;5059084;28;19928;-84
2023/07/15 10:11:58;;;;;;;;;;;28.40;98.80;;;;;;5033397;28;19929;-84
2023/07/15 10:14:26;;;;;;;;;;;28.30;99.00;;;;;;5038020;28;20325;-84
2023/07/15 10:17:07;;;;;;;;;;;28.40;99.30;;;;;;5050741;28;20350;-86
2023/07/15 10:19:42;;;;;;;;;;;28.40;98.90;;;;;;5058283;28;19951;-85
2023/07/15 10:22:08;;;;;;;;;;;28.30;98.40;;;;;;5045170;28;19972;-83
2023/07/15 10:24:33;;;;;;;;;;;28.10;98.90;;;;;;5056956;28;20015;-87
2023/07/15 10:27:03;;;;;;;;;;;28.00;98.90;;;;;;5049604;28;20024;-84
2023/07/15 10:29:31;;;;;;;;;;;27.90;98.50;;;;;;5061526;28;20048;-86
2023/07/15 10:32:13;;;;;;;;;;;27.90;99.40;;;;;;5029895;28;19932;-85
2023/07/15 10:34:49;;;;;;;;;;;28.00;99.70;;;;;;5041737;28;20082;-87
2023/07/15 10:37:16;;;;;;;;;;;28.10;99.90;;;;;;5053904;28;19929;-86
2023/07/15 10:39:42;;;;;;;;;;;28.20;99.20;;;;;;5054974;28;20372;-86
2023/07/15 10:42:30;;;;;;;;;;;28.10;98.90;;;;;;5052670;28;19935;-85
2023/07/15 10:44:56;;;;;;;;;;;28.40;99.00;;;;;;5046104;28;19974;-84
2023/07/15 10:47:21;;;;;;;;;;;28.70;97.60;;;;;;5049538;28;19928;-86
2023/07/15 10:49:47;;;;;;;;;;;28.80;97.60;;;;;;5049832;28;19929;-84
2023/07/15 10:52:18;;;;;;;;;;;28.70;96.40;;;;;;5050555;28;19928;-82
2023/07/15 10:54:44;;;;;;;;;;;28.70;97.20;;;;;;5047465;28;20402;-85
2023/07/15 10:57:11;;;;;;;;;;;28.40;97.40;;;;;;5039227;28;19924;-85
2023/07/15 10:59:37;;;;;;;;;;;28.20;97.70;;;;;;5046815;28;19987;-85
2023/07/15 11:02:03;;;;;;;;;;;28.10;98.20;;;;;;5036685;28;20402;-83
2023/07/15 11:04:29;;;;;;;;;;;28.00;97.70;;;;;;5049309;28;19933;-87
2023/07/15 11:06:59;;;;;;;;;;;27.90;98.30;;;;;;5027048;28;20003;-84
2023/07/15 11:09:25;;;;;;;;;;;27.80;98.60;;;;;;5049068;28;19929;-83
2023/07/15 11:11:51;;;;;;;;;;;27.70;97.90;;;;;;5033108;28;20002;-87
2023/07/15 11:14:19;;;;;;;;;;;27.60;98.90;;;;;;5032224;28;20359;-87
2023/07/15 11:16:45;;;;;;;;;;;27.60;98.30;;;;;;5045408;28;19925;-85
2023/07/15 11:19:15;;;;;;;;;;;27.60;98.70;;;;;;5058542;28;19924;-85
2023/07/15 11:21:42;;;;;;;;;;;27.60;99.00;;;;;;5038271;28;20371;-85
2023/07/15 11:24:09;;;;;;;;;;;27.60;98.90;;;;;;5045886;28;19931;-86
2023/07/15 11:26:35;;;;;;;;;;;27.50;98.70;;;;;;5041358;28;19928;-84
2023/07/15 11:29:12;;;;;;;;;;;27.50;99.00;;;;;;5071633;28;20015;-86
2023/07/15 11:31:39;;;;;;;;;;;27.40;99.30;;;;;;5058705;28;19932;-86
2023/07/15 11:34:09;;;;;;;;;;;27.40;99.00;;;;;;5055353;28;19924;-85
2023/07/15 11:36:35;;;;;;;;;;;27.30;99.00;;;;;;5068376;28;19924;-85
2023/07/15 11:39:00;;;;;;;;;;;27.20;98.90;;;;;;5068844;28;19935;-85
2023/07/15 11:41:26;;;;;;;;;;;27.10;99.20;;;;;;5059550;28;19925;-85
2023/07/15 11:43:53;;;;;;;;;;;26.90;99.60;;;;;;5057393;28;19988;-85
2023/07/15 11:46:19;;;;;;;;;;;26.80;99.30;;;;;;5055775;28;19929;-84
2023/07/15 11:48:45;;;;;;;;;;;26.60;99.70;;;;;;5045505;28;19925;-84
2023/07/15 11:51:11;;;;;;;;;;;26.40;99.90;;;;;;5039953;28;20473;-84
2023/07/15 11:53:37;;;;;;;;;;;26.20;99.90;;;;;;5055157;28;19932;-85
2023/07/15 11:56:03;;;;;;;;;;;26.10;99.90;;;;;;5055508;28;19925;-85
2023/07/15 11:58:55;;;;;;;;;;;26.00;99.90;;;;;;5060576;28;19932;-85
2023/07/15 12:01:25;;;;;;;;;;;26.10;99.90;;;;;;5049288;28;19925;-84
2023/07/15 12:03:50;;;;;;;;;;;26.40;99.90;;;;;;5054596;28;19978;-85
2023/07/15 12:06:17;;;;;;;;;;;26.70;99.90;;;;;;5037501;28;19928;-84
2023/07/15 12:08:43;;;;;;;;;;;26.80;99.90;;;;;;5051500;28;19929;-83
2023/07/15 12:11:15;;;;;;;;;;;26.90;99.90;;;;;;5048871;28;19960;-85
2023/07/15 12:13:41;;;;;;;;;;;27.10;99.90;;;;;;5054351;28;19925;-84
2023/07/15 12:16:06;;;;;;;;;;;27.30;99.90;;;;;;5053483;28;19925;-83
2023/07/15 12:18:32;;;;;;;;;;;27.60;99.90;;;;;;5049275;28;19932;-84
2023/07/15 12:20:58;;;;;;;;;;;27.80;99.90;;;;;;5038649;28;20008;-85
2023/07/15 12:23:23;;;;;;;;;;;27.70;99.40;;;;;;5069819;28;19928;-84
2023/07/15 12:25:49;;;;;;;;;;;27.60;99.90;;;;;;5055949;28;19932;-84
2023/07/15 12:28:14;;;;;;;;;;;27.40;99.70;;;;;;5062162;28;20020;-85
2023/07/15 12:30:40;;;;;;;;;;;27.20;99.90;;;;;;5061927;28;20022;-84
2023/07/15 12:33:05;;;;;;;;;;;27.10;99.80;;;;;;5048855;28;19932;-83
2023/07/15 12:35:31;;;;;;;;;;;26.90;99.60;;;;;;5066927;28;20338;-82
2023/07/15 12:37:57;;;;;;;;;;;26.90;99.70;;;;;;5065020;28;19925;-84
2023/07/15 12:40:23;;;;;;;;;;;26.80;99.90;;;;;;5025307;28;20372;-85
2023/07/15 12:42:51;;;;;;;;;;;26.80;99.30;;;;;;5051214;28;20329;-84
2023/07/15 12:45:17;;;;;;;;;;;26.90;99.40;;;;;;5066165;28;19925;-83
2023/07/15 12:47:43;;;;;;;;;;;27.30;98.50;;;;;;5052801;28;19951;-86
2023/07/15 12:50:08;;;;;;;;;;;27.60;98.60;;;;;;5052973;28;19929;-84
2023/07/15 12:52:34;;;;;;;;;;;27.90;97.40;;;;;;5050848;28;20001;-84
2023/07/15 12:55:02;;;;;;;;;;;28.20;98.00;;;;;;5039985;28;19933;-84
2023/07/15 12:57:28;;;;;;;;;;;28.40;96.30;;;;;;5033623;28;20363;-86
2023/07/15 12:59:53;;;;;;;;;;;28.30;96.50;;;;;;5053004;28;19932;-85
2023/07/15 13:02:19;;;;;;;;;;;28.10;96.00;;;;;;5041008;28;19925;-88
2023/07/15 13:04:44;;;;;;;;;;;27.90;95.50;;;;;;5051058;28;20419;-87
2023/07/15 13:07:10;;;;;;;;;;;27.70;95.60;;;;;;5057772;28;19924;-86
2023/07/15 13:09:36;;;;;;;;;;;27.70;95.60;;;;;;5061265;28;19934;-87
2023/07/15 13:12:01;;;;;;;;;;;27.60;96.00;;;;;;5017648;28;19931;-84
2023/07/15 13:14:27;;;;;;;;;;;27.60;95.30;;;;;;5056829;28;19925;-84
2023/07/15 13:16:52;;;;;;;;;;;27.80;96.10;;;;;;5051648;28;19924;-86
2023/07/15 13:19:18;;;;;;;;;;;28.00;94.60;;;;;;5052541;28;19972;-86
2023/07/15 13:21:44;;;;;;;;;;;28.10;92.90;;;;;;5050712;28;19924;-86
2023/07/15 13:24:09;;;;;;;;;;;28.30;93.40;;;;;;5047144;28;19931;-87
2023/07/15 13:26:38;;;;;;;;;;;28.40;92.80;;;;;;5029845;28;20295;-84
2023/07/15 13:29:04;;;;;;;;;;;28.40;91.80;;;;;;5045587;28;20394;-85
2023/07/15 13:31:29;;;;;;;;;;;28.60;92.30;;;;;;5051362;28;20025;-85
2023/07/15 13:33:55;;;;;;;;;;;28.80;93.20;;;;;;5047712;28;20134;-86
2023/07/15 13:36:21;;;;;;;;;;;28.90;93.20;;;;;;5059456;28;20360;-86
2023/07/15 13:38:47;;;;;;;;;;;29.00;91.00;;;;;;5059636;28;19924;-84
2023/07/15 13:41:13;;;;;;;;;;;29.00;91.30;;;;;;5014747;28;19984;-86
2023/07/15 13:43:39;;;;;;;;;;;29.10;91.50;;;;;;5052021;28;20833;-86
2023/07/15 13:46:05;;;;;;;;;;;29.10;90.10;;;;;;5046412;28;19978;-84
2023/07/15 13:48:30;;;;;;;;;;;29.00;90.10;;;;;;5035458;28;19931;-84
2023/07/15 13:50:56;;;;;;;;;;;29.00;90.80;;;;;;5051603;28;19932;-85
2023/07/15 13:53:21;;;;;;;;;;;29.00;90.90;;;;;;5039501;28;19925;-83
2023/07/15 13:55:47;;;;;;;;;;;29.00;91.00;;;;;;5049881;28;19939;-85
2023/07/15 13:58:12;;;;;;;;;;;29.00;91.10;;;;;;5033352;28;19936;-87
2023/07/15 14:00:38;;;;;;;;;;;29.10;91.40;;;;;;5058420;28;19929;-86
2023/07/15 14:03:03;;;;;;;;;;;29.10;90.80;;;;;;5052463;28;19964;-84
2023/07/15 14:05:29;;;;;;;;;;;29.10;90.40;;;;;;5058772;28;19928;-85
2023/07/15 14:07:55;;;;;;;;;;;29.10;87.90;;;;;;5030632;28;20478;-85
2023/07/15 14:10:20;;;;;;;;;;;29.00;86.60;;;;;;5050022;28;19931;-85
2023/07/15 14:12:46;;;;;;;;;;;29.00;90.10;;;;;;5031321;28;20387;-88